White Plains, NY

3:24 PM EST on December 25, 2014 (GMT -0500)
Teterboro | Change Station
CLOSE
Current Station
Airport
Location: Teterboro,
Elevation: 7 ft
Nearby Weather Stations

Elev 7 ft 40.86 °N, 74.06 °W | Updated 33 minutes ago

Overcast
Overcast
51 °F
Feels Like 51 °F
N
18
Wind Variable Wind from West
Gusts 26 mph

Today
High -- | Low -- °F
--% Chance of Precip.
Yesterday
High -- | Low -- °F
Precip. -- in
7:18 AM 4:32 PM
Waxing Crescent, 19% visible
Pressure 29.86 in
Visibility 10.0 miles
Clouds Overcast 6000 ft
Dew Point 31 °F
Humidity 46%
Rainfall 0.06 in
Snow Depth Not available.
UV 0 out of 12
Pollen .10 out of 12
Air Quality Not available.
Flu Activity Not available.
METAR KTEB 251951Z 28016G23KT 10SM OVC060 11/M00 A2986 RMK AO2 PK WND 30027/1907 SLP111 T01061005 $

More Conditions Fewer Conditions

Pressure 29.86 in
Visibility 10.0 miles
Clouds Overcast 6000 ft
Dew Point 31 °F
Humidity 46%
Rainfall 0.06 in
Snow Depth Not available.
UV 0 out of 12
Pollen .10 out of 12
Air Quality Not available.
Flu Activity Not available.
METAR KTEB 251951Z 28016G23KT 10SM OVC060 11/M00 A2986 RMK AO2 PK WND 30027/1907 SLP111 T01061005 $

More Conditions Fewer Conditions

10-Day Weather Forecast

Almanac

Astronomy

Dec. 25, 2014 Rise Set
Actual Time
Civil Twilight
Nautical Twilight
Astronomical Twilight
Moon
Length of Visible Light
Length of Day
Tomorrow will be .
, % of the Moon is Illuminated

Today's Extremes

State Highs State Lows

Community

WunderPhotos

Upload Photos

1,780,389 photos uploaded!

WunderBlogs® & News

Nearby

Air Quality

  Air Quality AQ Index Pollutant
Not available.

Snow Depth

Station Depth Elevation

Earthquake Activity

City Distance Mag. Time & Date
Minimum magnitude displayed is 2.5.

Coastal Water Temperatures

Place Temperature

Nearby Weather Stations